Time;durP1;ratioP1;P1;durP2;ratioP2;P2;SDS_P1;SDS_P2;PMS_P1;PMS_P2;Temp;Humidity;BMP_temperature;BMP_pressure;BME280_temperature;BME280_humidity;BME280_pressure;Samples;Min_cycle;Max_cycle;Signal;HPM_P1;HPM_P2
2022/11/16 00:00:32;;;;;;;13.45;9.00;;;11.10;99.90;;;;;;5019077;28;20523;-80
2022/11/16 00:03:02;;;;;;;13.48;9.02;;;11.10;99.90;;;;;;5018962;28;20046;-84
2022/11/16 00:05:28;;;;;;;13.70;9.05;;;11.10;99.90;;;;;;5002566;28;20572;-80
2022/11/16 00:07:53;;;;;;;14.40;9.50;;;11.20;99.90;;;;;;5018964;28;20049;-77
2022/11/16 00:10:19;;;;;;;13.90;9.43;;;11.20;99.90;;;;;;5001966;28;20080;-79
2022/11/16 00:12:45;;;;;;;14.63;9.57;;;11.10;99.90;;;;;;5018892;28;20046;-79
2022/11/16 00:15:11;;;;;;;14.60;9.20;;;11.10;99.90;;;;;;5018622;28;20111;-79
2022/11/16 00:17:36;;;;;;;13.00;8.77;;;11.20;99.90;;;;;;5018638;28;20053;-78
2022/11/16 00:20:03;;;;;;;13.38;9.02;;;11.20;99.90;;;;;;5002151;28;20536;-80
2022/11/16 00:22:28;;;;;;;14.38;9.70;;;11.20;99.90;;;;;;5002326;28;20046;-79
2022/11/16 00:24:54;;;;;;;15.07;9.77;;;11.20;99.90;;;;;;5002291;28;20041;-77
2022/11/16 00:27:20;;;;;;;13.57;8.88;;;11.20;99.90;;;;;;5018367;28;20474;-78
2022/11/16 00:29:45;;;;;;;15.68;9.18;;;11.30;99.90;;;;;;5001951;28;20138;-78
2022/11/16 00:32:11;;;;;;;13.20;8.98;;;11.30;99.90;;;;;;5018324;28;20049;-74
2022/11/16 00:34:38;;;;;;;13.63;9.27;;;11.30;99.90;;;;;;5002163;28;20433;-79
2022/11/16 00:37:04;;;;;;;12.90;9.38;;;11.30;99.90;;;;;;5001850;28;20164;-79
2022/11/16 00:39:30;;;;;;;15.02;10.10;;;11.30;99.90;;;;;;5001752;28;20505;-78
2022/11/16 00:41:55;;;;;;;15.27;10.02;;;11.30;99.90;;;;;;5017377;28;20474;-78
2022/11/16 00:44:21;;;;;;;15.45;9.30;;;11.30;99.90;;;;;;5017538;28;20045;-80
2022/11/16 00:46:47;;;;;;;15.70;9.95;;;11.50;99.90;;;;;;5001903;28;20051;-77
2022/11/16 00:49:13;;;;;;;14.95;9.82;;;11.40;99.90;;;;;;5017884;28;20473;-78
2022/11/16 00:51:39;;;;;;;15.60;9.93;;;11.30;99.90;;;;;;5017939;28;20498;-79
2022/11/16 00:54:06;;;;;;;13.70;9.15;;;11.40;99.90;;;;;;5001673;28;20052;-78
2022/11/16 00:56:32;;;;;;;14.80;9.65;;;11.40;99.90;;;;;;5001633;28;20055;-78
2022/11/16 00:58:58;;;;;;;14.75;9.20;;;11.40;99.90;;;;;;5017733;28;20131;-77
2022/11/16 01:01:24;;;;;;;14.43;9.43;;;11.40;99.90;;;;;;5001372;28;20044;-76
2022/11/16 01:03:49;;;;;;;13.57;9.00;;;11.40;99.90;;;;;;5001571;28;20053;-79
2022/11/16 01:06:16;;;;;;;14.43;9.35;;;11.40;99.90;;;;;;5017627;28;20081;-76
2022/11/16 01:08:42;;;;;;;12.75;9.02;;;11.40;99.90;;;;;;5017694;28;20045;-78
2022/11/16 01:13:54;;;;;;;15.43;9.77;;;11.50;99.90;;;;;;5017706;28;20053;-78
2022/11/16 01:16:21;;;;;;;11.48;8.65;;;11.50;99.90;;;;;;5001245;28;20052;-79
2022/11/16 01:18:49;;;;;;;12.68;8.60;;;11.20;99.90;;;;;;5017520;28;20379;-79
2022/11/16 01:21:16;;;;;;;14.50;9.10;;;11.50;99.90;;;;;;5017309;28;20495;-79
2022/11/16 01:23:41;;;;;;;14.75;8.25;;;11.50;99.90;;;;;;5017519;28;20132;-77
2022/11/16 01:26:07;;;;;;;13.90;9.02;;;11.50;99.90;;;;;;5017355;28;20096;-77
2022/11/16 01:28:33;;;;;;;11.77;8.23;;;11.60;99.90;;;;;;5017161;28;20056;-77
2022/11/16 01:30:59;;;;;;;13.30;8.85;;;11.60;99.90;;;;;;4984859;28;20053;-78
2022/11/16 01:33:24;;;;;;;10.93;7.75;;;11.50;99.90;;;;;;5000816;28;20045;-78
2022/11/16 01:35:50;;;;;;;11.32;7.75;;;11.60;99.90;;;;;;5017056;28;20406;-77
2022/11/16 01:38:16;;;;;;;12.50;7.90;;;11.60;99.90;;;;;;5016969;28;20045;-77
2022/11/16 01:40:42;;;;;;;10.85;7.65;;;11.60;99.90;;;;;;5000803;28;20453;-76
2022/11/16 01:43:20;;;;;;;11.05;7.10;;;11.60;99.90;;;;;;5000870;28;20060;-76
2022/11/16 01:45:46;;;;;;;13.23;7.70;;;11.60;99.90;;;;;;5000976;28;20498;-78
2022/11/16 01:48:16;;;;;;;11.77;7.38;;;12.00;99.90;;;;;;4984611;28;20042;-77
2022/11/16 01:50:43;;;;;;;12.13;7.07;;;11.70;99.90;;;;;;5017051;28;20452;-78
2022/11/16 01:53:10;;;;;;;10.65;7.25;;;11.70;99.90;;;;;;5016616;28;20049;-78
2022/11/16 01:55:37;;;;;;;11.10;6.68;;;11.70;99.90;;;;;;5016743;28;20109;-77
2022/11/16 01:58:03;;;;;;;8.32;6.28;;;11.70;99.90;;;;;;5016745;28;20037;-77
2022/11/16 02:00:29;;;;;;;10.05;6.78;;;11.70;99.90;;;;;;5016654;28;20425;-79
2022/11/16 02:02:55;;;;;;;14.43;7.30;;;11.70;99.90;;;;;;5016701;28;20045;-78
2022/11/16 02:05:49;;;;;;;9.38;6.75;;;11.70;99.90;;;;;;4983743;28;20056;-77
2022/11/16 02:11:38;;;;;;;8.82;6.47;;;11.70;99.90;;;;;;5016148;28;20057;-76
2022/11/16 02:14:13;;;;;;;9.90;6.18;;;11.70;99.90;;;;;;5016588;28;20480;-78
2022/11/16 02:17:08;;;;;;;9.93;6.18;;;11.70;99.90;;;;;;5016404;28;20049;-77
2022/11/16 02:20:13;;;;;;;10.43;5.80;;;11.70;99.90;;;;;;5016031;28;20057;-77
2022/11/16 02:22:54;;;;;;;10.02;6.75;;;11.70;99.90;;;;;;5016223;28;20437;-78
2022/11/16 02:25:28;;;;;;;9.97;6.73;;;11.60;99.90;;;;;;5016298;28;20049;-80
2022/11/16 02:28:12;;;;;;;9.95;6.50;;;11.70;99.90;;;;;;5016568;28;20105;-80
2022/11/16 02:30:45;;;;;;;11.68;6.72;;;11.70;99.90;;;;;;5016169;28;20052;-78
2022/11/16 02:33:14;;;;;;;11.35;7.20;;;11.70;99.90;;;;;;5016343;28;20441;-78
2022/11/16 02:35:54;;;;;;;9.93;6.60;;;11.70;99.90;;;;;;5015927;28;20061;-78
2022/11/16 02:38:25;;;;;;;13.27;7.00;;;11.70;99.90;;;;;;5015864;28;20459;-75
2022/11/16 02:40:55;;;;;;;10.88;6.78;;;11.60;99.90;;;;;;5016165;28;20052;-78
2022/11/16 02:43:27;;;;;;;10.70;7.25;;;11.60;99.90;;;;;;5016204;28;20375;-78
2022/11/16 02:45:57;;;;;;;11.15;7.10;;;11.60;99.90;;;;;;5016172;28;20091;-77
2022/11/16 02:48:29;;;;;;;11.30;7.53;;;11.60;99.90;;;;;;5015897;28;20045;-79
2022/11/16 02:50:55;;;;;;;11.25;7.35;;;11.60;99.90;;;;;;5016087;28;20394;-77
2022/11/16 02:53:23;;;;;;;13.48;7.55;;;11.50;99.90;;;;;;5015930;28;20048;-77
2022/11/16 02:55:49;;;;;;;12.55;7.20;;;11.60;99.90;;;;;;5015930;28;20045;-77
2022/11/16 02:58:20;;;;;;;11.95;8.43;;;11.50;99.90;;;;;;4999333;28;20240;-77
2022/11/16 03:01:13;;;;;;;12.85;7.60;;;11.50;99.90;;;;;;5015719;28;20108;-77
2022/11/16 03:04:00;;;;;;;15.27;8.00;;;11.50;99.90;;;;;;5015699;28;20064;-77
2022/11/16 03:06:30;;;;;;;13.45;8.10;;;11.50;99.90;;;;;;5015018;28;20132;-77
2022/11/16 03:09:04;;;;;;;12.82;8.30;;;11.50;99.90;;;;;;5015747;28;20056;-76
2022/11/16 03:14:21;;;;;;;13.65;8.05;;;11.50;99.90;;;;;;5015684;28;20064;-77
2022/11/16 03:16:54;;;;;;;14.15;7.85;;;11.50;99.90;;;;;;5015519;28;20509;-75
2022/11/16 03:19:43;;;;;;;11.80;8.38;;;11.50;99.90;;;;;;5015352;28;20041;-76
2022/11/16 03:22:18;;;;;;;14.27;7.90;;;11.50;99.90;;;;;;5015670;28;20049;-77
2022/11/16 03:24:44;;;;;;;11.98;8.02;;;11.40;99.90;;;;;;4999061;28;20482;-75
2022/11/16 03:27:22;;;;;;;13.05;8.07;;;11.40;99.90;;;;;;5015384;28;20499;-77
2022/11/16 03:30:03;;;;;;;12.60;7.85;;;11.50;99.90;;;;;;4999030;28;20046;-77
2022/11/16 03:32:48;;;;;;;16.33;8.63;;;11.40;99.90;;;;;;5015385;28;20076;-82
2022/11/16 03:35:21;;;;;;;14.07;8.35;;;11.40;99.90;;;;;;5015513;28;20390;-76
2022/11/16 03:37:51;;;;;;;13.02;8.18;;;11.40;99.90;;;;;;5015157;28;20099;-78
2022/11/16 03:40:18;;;;;;;15.90;8.85;;;11.40;99.90;;;;;;5015311;28;20136;-77
2022/11/16 03:42:48;;;;;;;13.40;9.20;;;11.40;99.90;;;;;;4998822;28;20045;-77
2022/11/16 03:45:15;;;;;;;14.45;8.50;;;11.40;99.90;;;;;;4999199;28;20053;-76
2022/11/16 03:47:41;;;;;;;15.43;8.80;;;11.40;99.90;;;;;;5014895;28;20049;-77
2022/11/16 03:50:08;;;;;;;12.90;8.90;;;11.50;99.90;;;;;;5015106;28;20108;-78
2022/11/16 03:52:34;;;;;;;15.25;9.35;;;11.40;99.90;;;;;;5015039;28;20052;-78
2022/11/16 03:55:00;;;;;;;17.48;10.07;;;11.40;99.90;;;;;;4999061;28;20042;-78
2022/11/16 03:57:26;;;;;;;16.65;9.68;;;11.40;99.90;;;;;;4999017;28;20140;-75
2022/11/16 03:59:52;;;;;;;15.10;9.35;;;11.40;99.90;;;;;;5014797;28;20052;-76
2022/11/16 04:02:17;;;;;;;15.07;9.93;;;11.40;99.90;;;;;;4998570;28;20053;-76
2022/11/16 04:24:11;;;;;;;17.65;10.63;;;11.40;99.90;;;;;;5018661;28;20049;-76
2022/11/16 04:29:22;;;;;;;17.55;10.82;;;11.50;99.90;;;;;;5018503;28;20061;-76
2022/11/16 04:40:02;;;;;;;21.83;12.32;;;11.50;99.90;;;;;;5035412;28;20045;-77
2022/11/16 04:42:28;;;;;;;19.85;12.05;;;11.50;99.90;;;;;;5003082;28;20506;-78
2022/11/16 04:47:38;;;;;;;21.85;12.38;;;11.40;99.90;;;;;;5035663;28;20061;-77
2022/11/16 04:50:04;;;;;;;24.58;12.88;;;11.50;99.90;;;;;;5018631;28;20414;-77
2022/11/16 04:52:30;;;;;;;21.17;12.65;;;11.40;99.90;;;;;;5035577;28;20052;-78
2022/11/16 04:54:55;;;;;;;21.45;12.85;;;11.50;99.90;;;;;;5035552;28;20045;-77
2022/11/16 04:57:21;;;;;;;23.48;13.20;;;11.50;99.90;;;;;;5018925;28;20052;-79
2022/11/16 04:59:47;;;;;;;21.45;13.25;;;11.50;99.90;;;;;;5035020;28;20127;-78
2022/11/16 05:02:14;;;;;;;22.60;13.13;;;11.40;99.90;;;;;;5035098;28;20053;-76
2022/11/16 05:04:41;;;;;;;22.52;13.98;;;11.40;99.90;;;;;;5035017;28;20052;-76
2022/11/16 05:07:10;;;;;;;21.75;13.38;;;11.40;99.90;;;;;;5035115;28;20405;-75
2022/11/16 05:09:45;;;;;;;22.88;13.55;;;11.50;99.90;;;;;;5027034;28;20052;-76
2022/11/16 05:12:13;;;;;;;22.27;12.77;;;11.40;99.90;;;;;;5046895;28;20048;-78
2022/11/16 05:14:41;;;;;;;22.17;13.27;;;11.40;99.90;;;;;;5033077;28;20057;-77
2022/11/16 05:17:07;;;;;;;24.60;13.38;;;11.50;99.90;;;;;;5035077;28;20040;-77
2022/11/16 05:22:17;;;;;;;24.63;14.32;;;11.40;99.90;;;;;;5051860;28;20049;-77
2022/11/16 05:24:43;;;;;;;22.70;13.38;;;11.40;99.90;;;;;;5034443;28;20057;-78
2022/11/16 05:27:14;;;;;;;21.48;13.30;;;11.40;99.90;;;;;;5034888;28;20052;-77
2022/11/16 05:29:40;;;;;;;23.90;14.23;;;11.40;99.90;;;;;;5034457;28;20060;-76
2022/11/16 05:32:07;;;;;;;22.25;14.00;;;11.40;99.90;;;;;;5051391;28;20127;-76
2022/11/16 05:34:33;;;;;;;20.58;13.18;;;11.40;99.90;;;;;;5034917;28;20543;-78
2022/11/16 05:37:01;;;;;;;26.35;14.50;;;11.40;99.90;;;;;;4770282;28;10000604;-74
2022/11/16 05:39:27;;;;;;;23.38;13.80;;;11.40;99.90;;;;;;5018076;28;20297;-78
2022/11/16 05:41:53;;;;;;;22.90;14.35;;;11.40;99.90;;;;;;5034270;28;20083;-78
2022/11/16 05:44:19;;;;;;;23.02;13.88;;;11.40;99.90;;;;;;5018112;28;20084;-78
2022/11/16 05:46:45;;;;;;;22.83;13.77;;;11.40;99.90;;;;;;5034518;28;20500;-78
2022/11/16 05:49:12;;;;;;;24.08;14.32;;;11.40;99.90;;;;;;5017338;28;20045;-77
2022/11/16 05:51:40;;;;;;;25.02;14.68;;;11.30;99.90;;;;;;5034238;28;20056;-77
2022/11/16 05:54:06;;;;;;;22.85;13.52;;;11.30;99.90;;;;;;5017675;28;20052;-77
2022/11/16 05:56:32;;;;;;;20.70;13.13;;;11.30;99.90;;;;;;5017982;28;20041;-76
2022/11/16 05:58:58;;;;;;;19.73;12.90;;;11.40;99.90;;;;;;5017555;28;20059;-76
2022/11/16 06:01:24;;;;;;;22.58;13.38;;;11.30;99.90;;;;;;5033841;28;20037;-79
2022/11/16 06:03:51;;;;;;;20.80;12.25;;;11.30;99.90;;;;;;5001438;28;20052;-78
2022/11/16 06:06:16;;;;;;;18.48;12.15;;;11.30;99.90;;;;;;5017687;28;20056;-75
2022/11/16 06:08:42;;;;;;;21.85;12.73;;;11.30;99.90;;;;;;5017774;28;20049;-76
2022/11/16 06:11:09;;;;;;;20.23;12.30;;;11.30;99.90;;;;;;5013476;28;20065;-80
2022/11/16 06:13:35;;;;;;;22.90;12.82;;;11.30;99.90;;;;;;4997762;28;20145;-78
2022/11/16 06:16:03;;;;;;;20.88;12.95;;;11.30;99.90;;;;;;5014045;28;20128;-80
2022/11/16 06:18:29;;;;;;;22.10;13.27;;;11.30;99.90;;;;;;5014222;28;20041;-78
2022/11/16 06:20:55;;;;;;;19.80;13.23;;;11.30;99.90;;;;;;4997587;28;20055;-79
2022/11/16 06:23:21;;;;;;;20.17;13.27;;;11.30;99.90;;;;;;4997951;28;20045;-78
2022/11/16 06:25:51;;;;;;;22.67;13.50;;;11.30;99.90;;;;;;4997421;28;20049;-78
2022/11/16 06:28:17;;;;;;;21.10;13.13;;;11.30;99.90;;;;;;5014068;28;20057;-78
2022/11/16 06:30:42;;;;;;;21.45;13.05;;;11.30;99.90;;;;;;5014056;28;20474;-80
2022/11/16 06:33:08;;;;;;;23.05;13.38;;;11.30;99.90;;;;;;4981392;28;20091;-80
2022/11/16 06:35:34;;;;;;;21.88;13.43;;;11.30;99.90;;;;;;4997532;28;20037;-80
2022/11/16 06:38:00;;;;;;;23.63;13.60;;;11.30;99.90;;;;;;4996741;28;20113;-79
2022/11/16 06:40:25;;;;;;;22.20;13.55;;;11.30;99.90;;;;;;5012979;28;20052;-80
2022/11/16 06:42:51;;;;;;;21.48;13.52;;;11.30;99.90;;;;;;5013855;28;20049;-78
2022/11/16 06:45:17;;;;;;;21.55;13.85;;;11.30;99.90;;;;;;4981104;28;20505;-80
2022/11/16 06:47:42;;;;;;;23.38;14.35;;;11.30;99.90;;;;;;5013791;28;20114;-79
2022/11/16 06:50:09;;;;;;;23.25;14.77;;;11.30;99.90;;;;;;4996900;28;20045;-81
2022/11/16 06:52:35;;;;;;;22.85;14.20;;;11.30;99.90;;;;;;5013409;28;20514;-79
2022/11/16 06:55:01;;;;;;;23.52;13.95;;;11.30;99.90;;;;;;4997104;28;20054;-79
2022/11/16 06:57:27;;;;;;;27.20;16.13;;;11.30;99.90;;;;;;4997195;28;20045;-78
2022/11/16 06:59:53;;;;;;;27.63;15.57;;;11.40;99.90;;;;;;4997074;28;20434;-80
2022/11/16 07:02:20;;;;;;;30.10;16.08;;;11.40;99.90;;;;;;4996709;28;20116;-79
2022/11/16 07:04:45;;;;;;;24.75;15.20;;;11.40;99.90;;;;;;5013512;28;20050;-78
2022/11/16 07:07:11;;;;;;;27.38;16.02;;;11.40;99.90;;;;;;4996883;28;20064;-78
2022/11/16 07:09:37;;;;;;;25.65;15.60;;;11.40;99.90;;;;;;4997067;28;20041;-79
2022/11/16 07:12:03;;;;;;;29.40;16.25;;;11.40;99.90;;;;;;4996358;28;20060;-79
2022/11/16 07:14:29;;;;;;;28.65;16.00;;;11.40;99.90;;;;;;5012616;28;20148;-79
2022/11/16 07:16:54;;;;;;;26.05;15.63;;;11.40;99.90;;;;;;5012676;28;20127;-79
2022/11/16 07:19:20;;;;;;;25.95;15.98;;;11.40;99.90;;;;;;5012306;28;20041;-78
2022/11/16 07:21:46;;;;;;;27.27;16.35;;;11.40;99.90;;;;;;4980178;28;20049;-79
2022/11/16 07:24:12;;;;;;;28.63;16.73;;;11.40;99.90;;;;;;4996438;28;20136;-78
2022/11/16 07:26:37;;;;;;;28.15;16.88;;;11.40;99.90;;;;;;4979786;28;20049;-79
2022/11/16 07:29:03;;;;;;;29.92;17.45;;;11.40;99.90;;;;;;5012993;28;20111;-79
2022/11/16 07:31:29;;;;;;;30.25;17.75;;;11.50;99.90;;;;;;4996334;28;20478;-77
2022/11/16 07:33:55;;;;;;;31.70;16.77;;;11.50;99.90;;;;;;5012385;28;20080;-78
2022/11/16 07:36:21;;;;;;;29.20;17.92;;;11.50;99.90;;;;;;4995657;28;20046;-79
2022/11/16 07:38:46;;;;;;;26.98;16.23;;;11.50;99.90;;;;;;4980251;28;20037;-79
2022/11/16 07:41:17;;;;;;;29.63;18.35;;;11.50;99.90;;;;;;5012704;28;20064;-78
2022/11/16 07:43:44;;;;;;;29.25;17.40;;;11.50;99.90;;;;;;5013266;28;20080;-80
2022/11/16 07:46:15;;;;;;;32.28;16.30;;;11.50;99.90;;;;;;4996682;28;20383;-80
2022/11/16 07:48:41;;;;;;;30.23;16.98;;;11.50;99.90;;;;;;4996488;28;20053;-78
2022/11/16 07:51:13;;;;;;;31.60;17.52;;;11.50;99.90;;;;;;5013096;28;20041;-79
2022/11/16 07:53:40;;;;;;;31.50;17.27;;;11.50;99.90;;;;;;5017112;28;20045;-79
2022/11/16 07:56:06;;;;;;;34.22;17.27;;;11.50;99.90;;;;;;5000563;28;20450;-79
2022/11/16 07:58:33;;;;;;;26.92;16.52;;;11.50;99.90;;;;;;5000440;28;20037;-79
2022/11/16 08:01:06;;;;;;;29.48;16.20;;;11.50;99.90;;;;;;5016508;28;20050;-80
2022/11/16 08:03:34;;;;;;;29.23;17.40;;;11.50;99.90;;;;;;5016188;28;20128;-80
2022/11/16 08:06:06;;;;;;;29.60;16.77;;;11.50;99.90;;;;;;5016683;28;20394;-79
2022/11/16 08:08:32;;;;;;;29.23;16.88;;;11.50;99.90;;;;;;5016608;28;20048;-78
2022/11/16 08:11:06;;;;;;;27.15;16.63;;;11.50;99.90;;;;;;5017601;28;20087;-78
2022/11/16 08:13:34;;;;;;;26.27;16.08;;;11.50;99.90;;;;;;5018779;28;20140;-79
2022/11/16 08:16:01;;;;;;;28.88;16.73;;;11.50;99.90;;;;;;5019827;28;20515;-79
2022/11/16 08:18:27;;;;;;;26.02;15.60;;;11.40;99.90;;;;;;5019285;28;20079;-79
2022/11/16 08:20:53;;;;;;;25.80;15.65;;;11.50;99.90;;;;;;5036343;28;20140;-79
2022/11/16 08:23:19;;;;;;;25.55;15.80;;;11.50;99.90;;;;;;5019267;28;20516;-79
2022/11/16 08:25:44;;;;;;;28.27;16.17;;;11.40;99.90;;;;;;5003175;28;20041;-79
2022/11/16 08:28:10;;;;;;;25.95;16.35;;;11.40;99.90;;;;;;5019714;28;20049;-79
2022/11/16 08:30:38;;;;;;;26.45;15.30;;;11.50;99.90;;;;;;5027721;28;20569;-79
2022/11/16 08:33:04;;;;;;;25.92;16.20;;;11.50;99.90;;;;;;5017716;28;20537;-78
2022/11/16 08:35:30;;;;;;;23.98;15.27;;;11.50;99.90;;;;;;5015495;28;20192;-78
2022/11/16 08:37:56;;;;;;;23.63;14.95;;;11.50;99.90;;;;;;5024382;28;20037;-78
2022/11/16 08:40:21;;;;;;;26.38;15.15;;;11.50;99.90;;;;;;5035747;28;20106;-78
2022/11/16 08:42:47;;;;;;;23.85;15.88;;;11.40;99.90;;;;;;5019114;28;20041;-79
2022/11/16 08:45:13;;;;;;;23.80;14.95;;;11.50;99.90;;;;;;5036033;28;20045;-79
2022/11/16 08:47:38;;;;;;;26.88;16.30;;;11.50;99.90;;;;;;5019261;28;20106;-78
2022/11/16 08:50:04;;;;;;;24.38;15.27;;;11.50;99.90;;;;;;5035424;28;20138;-79
2022/11/16 08:52:30;;;;;;;29.42;15.60;;;11.50;99.90;;;;;;5035606;28;20045;-79
2022/11/16 08:54:56;;;;;;;26.55;15.75;;;11.50;99.90;;;;;;5019262;28;20130;-79
2022/11/16 08:57:21;;;;;;;25.33;15.55;;;11.50;99.90;;;;;;5035363;28;20045;-79
2022/11/16 08:59:47;;;;;;;25.20;15.38;;;11.60;99.90;;;;;;5002626;28;20055;-80
2022/11/16 09:02:13;;;;;;;24.13;15.23;;;11.60;99.90;;;;;;5002443;28;20060;-79
2022/11/16 09:04:42;;;;;;;27.48;16.13;;;11.60;99.90;;;;;;5034480;28;20405;-80
2022/11/16 09:07:09;;;;;;;24.77;15.90;;;11.60;99.90;;;;;;5018900;28;20057;-77
2022/11/16 09:09:35;;;;;;;24.45;15.60;;;11.60;99.90;;;;;;5035465;28;20132;-78
2022/11/16 09:12:01;;;;;;;23.92;14.77;;;11.70;99.90;;;;;;5016864;28;20056;-79
2022/11/16 09:14:27;;;;;;;25.70;15.95;;;11.70;99.90;;;;;;4982274;28;20055;-79
2022/11/16 09:16:53;;;;;;;25.40;15.45;;;11.70;99.90;;;;;;4999103;28;20049;-79
2022/11/16 09:19:19;;;;;;;27.95;16.02;;;11.70;99.90;;;;;;5015231;28;20907;-79
2022/11/16 09:21:45;;;;;;;24.50;15.68;;;11.80;99.90;;;;;;5015347;28;20056;-78
2022/11/16 09:24:11;;;;;;;27.10;16.70;;;11.80;99.90;;;;;;4998944;28;20053;-78
2022/11/16 09:26:36;;;;;;;24.13;15.30;;;11.80;99.90;;;;;;5014391;28;20056;-79
2022/11/16 09:29:03;;;;;;;30.52;16.48;;;11.80;99.90;;;;;;4966440;28;20046;-79
2022/11/16 09:31:33;;;;;;;25.15;15.88;;;11.80;99.90;;;;;;4998765;28;20053;-78
2022/11/16 09:33:59;;;;;;;25.83;16.33;;;11.90;99.90;;;;;;5015085;28;20107;-78
2022/11/16 09:36:27;;;;;;;28.05;17.65;;;11.90;99.90;;;;;;4998354;28;20119;-78
2022/11/16 09:38:53;;;;;;;29.77;17.48;;;11.90;99.90;;;;;;5014653;28;20124;-78
2022/11/16 09:41:48;;;;;;;25.75;16.25;;;11.90;99.90;;;;;;5015011;28;20136;-79
2022/11/16 09:44:26;;;;;;;26.77;16.30;;;11.90;99.90;;;;;;4998827;28;20053;-78
2022/11/16 09:46:56;;;;;;;29.15;16.77;;;12.00;99.90;;;;;;4998660;28;20044;-78
2022/11/16 09:49:27;;;;;;;28.33;15.95;;;12.00;99.90;;;;;;5014295;28;20051;-78
2022/11/16 09:51:56;;;;;;;;;;;12.40;99.90;;;;;;5015431;28;20057;-78
2022/11/16 09:54:32;;;;;;;24.77;15.70;;;12.00;99.90;;;;;;4998513;28;20535;-77
2022/11/16 09:57:02;;;;;;;25.02;16.40;;;12.10;99.90;;;;;;4998545;28;20045;-77
2022/11/16 09:59:53;;;;;;;26.83;16.40;;;12.10;99.90;;;;;;4998001;28;20437;-79
2022/11/16 10:02:42;;;;;;;23.70;16.08;;;12.30;99.90;;;;;;5014144;28;20049;-78
2022/11/16 10:05:16;;;;;;;23.58;15.70;;;12.30;99.90;;;;;;5014699;28;20053;-79
2022/11/16 10:07:49;;;;;;;25.52;16.63;;;12.40;99.90;;;;;;5014327;28;20448;-79
2022/11/16 10:10:22;;;;;;;24.27;16.50;;;12.40;99.90;;;;;;4998325;28;20085;-80
2022/11/16 10:13:01;;;;;;;23.30;15.38;;;12.40;99.90;;;;;;5002100;28;20498;-77
2022/11/16 10:16:04;;;;;;;23.40;16.20;;;12.50;99.90;;;;;;5030712;28;20187;-79
2022/11/16 10:18:54;;;;;;;23.85;16.23;;;12.50;99.90;;;;;;5030468;28;20421;-79
2022/11/16 10:21:44;;;;;;;22.80;15.98;;;12.50;99.90;;;;;;5029577;28;20063;-79
2022/11/16 10:24:49;;;;;;;25.92;16.70;;;12.60;99.90;;;;;;5013890;28;20072;-79
2022/11/16 10:27:41;;;;;;;23.50;15.40;;;12.60;99.90;;;;;;5030437;28;20057;-78
2022/11/16 10:30:08;;;;;;;;;;;12.70;99.90;;;;;;4994765;28;20479;-78
2022/11/16 10:32:54;;;;;;;22.80;15.52;;;12.70;99.90;;;;;;4993900;28;20055;-78
2022/11/16 10:35:29;;;;;;;20.40;14.55;;;12.80;99.90;;;;;;5010689;28;20057;-78
2022/11/16 10:37:58;;;;;;;22.75;15.20;;;12.80;99.90;;;;;;5021733;28;20052;-78
2022/11/16 10:40:35;;;;;;;21.55;15.00;;;12.70;99.90;;;;;;5013570;28;20053;-77
2022/11/16 10:43:13;;;;;;;21.50;15.38;;;12.70;99.90;;;;;;5030345;28;20060;-77
2022/11/16 10:46:01;;;;;;;22.52;15.18;;;12.70;99.90;;;;;;5030098;28;20457;-78
2022/11/16 10:48:52;;;;;;;19.92;15.20;;;12.60;99.90;;;;;;5029523;28;20053;-77
2022/11/16 10:51:18;;;;;;;21.58;15.52;;;12.60;99.90;;;;;;5013743;28;20053;-77
2022/11/16 10:53:44;;;;;;;26.48;15.52;;;12.60;99.90;;;;;;5013579;28;20060;-77
2022/11/16 10:56:10;;;;;;;22.42;15.20;;;12.60;99.90;;;;;;5029958;28;20486;-78
2022/11/16 10:58:48;;;;;;;22.95;15.50;;;12.60;99.90;;;;;;5029611;28;20052;-78
2022/11/16 11:01:49;;;;;;;23.42;14.70;;;12.60;99.90;;;;;;5012875;28;20483;-78
2022/11/16 11:04:17;;;;;;;22.73;15.88;;;12.70;99.90;;;;;;5030112;28;20037;-77
2022/11/16 11:06:43;;;;;;;23.35;15.52;;;12.60;99.90;;;;;;5029582;28;20045;-77
2022/11/16 11:09:24;;;;;;;22.48;16.10;;;12.70;99.90;;;;;;5029778;28;20057;-78
2022/11/16 11:12:42;;;;;;;22.70;15.45;;;12.80;99.90;;;;;;5013027;28;20099;-78
2022/11/16 11:14:58;;;;;;;20.95;15.77;;;12.90;99.90;;;;;;5018637;28;20187;-79
2022/11/16 11:17:24;;;;;;;19.50;14.18;;;13.00;99.90;;;;;;5030008;28;20126;-78
2022/11/16 11:20:02;;;;;;;21.67;13.98;;;13.10;99.90;;;;;;5029309;28;20502;-78
2022/11/16 11:22:29;;;;;;;18.30;14.10;;;13.20;99.90;;;;;;4997597;28;20057;-77
2022/11/16 11:24:55;;;;;;;19.00;13.02;;;13.20;99.90;;;;;;5011042;28;20108;-78
2022/11/16 11:27:24;;;;;;;23.70;14.23;;;13.30;99.90;;;;;;5017673;28;20045;-78
2022/11/16 11:29:53;;;;;;;17.52;12.35;;;13.40;99.90;;;;;;5036026;28;20098;-77
2022/11/16 11:32:24;;;;;;;18.13;12.40;;;13.40;99.90;;;;;;5036206;28;20398;-78
2022/11/16 11:34:54;;;;;;;20.20;12.48;;;13.50;99.90;;;;;;5019559;28;20049;-78
2022/11/16 11:37:29;;;;;;;19.88;12.38;;;13.50;99.90;;;;;;5035742;28;20037;-78
2022/11/16 11:40:08;;;;;;;19.13;11.82;;;13.40;99.90;;;;;;5019234;28;20041;-78
2022/11/16 11:42:37;;;;;;;18.40;11.40;;;13.40;99.90;;;;;;5019654;28;20057;-78
2022/11/16 11:45:08;;;;;;;14.63;10.70;;;13.60;99.90;;;;;;5019453;28;20187;-78
2022/11/16 11:47:39;;;;;;;16.63;10.32;;;13.80;99.90;;;;;;5036170;28;20156;-78
2022/11/16 11:50:43;;;;;;;13.65;10.00;;;13.80;99.90;;;;;;5035354;28;20041;-77
2022/11/16 11:53:30;;;;;;;13.95;9.00;;;14.10;99.90;;;;;;5019326;28;20068;-77
2022/11/16 11:55:58;;;;;;;12.65;8.55;;;14.00;99.90;;;;;;5019394;28;20052;-78
2022/11/16 11:58:37;;;;;;;12.98;8.35;;;14.00;99.90;;;;;;5019463;28;20128;-78
2022/11/16 12:01:34;;;;;;;10.60;6.93;;;13.80;99.90;;;;;;5035514;28;20053;-78
2022/11/16 12:04:27;;;;;;;9.85;6.93;;;13.60;99.90;;;;;;5035748;28;20095;-78
2022/11/16 12:07:11;;;;;;;10.77;6.70;;;13.50;99.90;;;;;;5019340;28;20045;-78
2022/11/16 12:09:43;;;;;;;11.48;6.60;;;13.50;99.90;;;;;;5019346;28;20048;-77
2022/11/16 12:12:23;;;;;;;10.63;6.82;;;13.30;99.90;;;;;;5037576;28;20136;-76
2022/11/16 12:15:17;;;;;;;13.27;6.82;;;13.40;99.90;;;;;;5019467;28;20053;-78
2022/11/16 12:18:21;;;;;;;10.02;7.13;;;13.40;99.90;;;;;;5019886;28;20046;-78
2022/11/16 12:20:46;;;;;;;11.45;7.75;;;13.60;99.90;;;;;;5019398;28;20045;-78
2022/11/16 12:23:21;;;;;;;10.95;7.13;;;13.20;99.90;;;;;;5003552;28;20135;-78
2022/11/16 12:26:14;;;;;;;10.88;6.82;;;13.70;99.90;;;;;;5017651;28;20075;-79
2022/11/16 12:29:24;;;;;;;11.30;6.40;;;13.80;99.90;;;;;;5019247;28;20123;-79
2022/11/16 12:31:50;;;;;;;11.60;6.65;;;13.80;99.90;;;;;;5008310;28;20053;-77
2022/11/16 12:34:29;;;;;;;9.45;6.50;;;14.00;99.90;;;;;;5037432;28;20123;-78
2022/11/16 12:37:10;;;;;;;13.45;6.57;;;14.70;99.90;;;;;;5002557;28;20049;-79
2022/11/16 12:39:47;;;;;;;12.83;6.93;;;15.50;99.90;;;;;;4999472;28;20104;-79
2022/11/16 12:42:35;;;;;;;9.75;5.50;;;16.00;99.90;;;;;;5016542;28;20304;-78
2022/11/16 12:45:23;;;;;;;7.40;4.97;;;16.40;99.90;;;;;;5016738;28;20099;-78
2022/11/16 12:48:28;;;;;;;8.65;5.13;;;16.50;99.90;;;;;;4996791;28;20054;-79
2022/11/16 12:51:25;;;;;;;9.98;4.97;;;16.80;99.90;;;;;;4995810;28;20054;-80
2022/11/16 12:54:05;;;;;;;7.60;4.60;;;17.00;99.90;;;;;;4996161;28;20386;-79
2022/11/16 12:56:37;;;;;;;8.47;4.47;;;16.60;99.90;;;;;;4996028;28;20549;-80
2022/11/16 12:59:50;;;;;;;6.70;3.67;;;16.90;99.90;;;;;;4995798;28;20046;-80
2022/11/16 13:02:44;;;;;;;8.85;4.32;;;17.30;99.90;;;;;;4972378;28;20380;-81
2022/11/16 13:05:23;;;;;;;6.55;3.83;;;16.90;99.90;;;;;;4979801;28;20061;-80
2022/11/16 13:07:56;;;;;;;7.78;3.65;;;17.30;99.90;;;;;;4979843;28;20050;-80
2022/11/16 13:10:26;;;;;;;8.32;4.10;;;17.30;99.90;;;;;;4996080;28;20053;-80
2022/11/16 13:13:00;;;;;;;8.57;4.53;;;16.60;99.90;;;;;;4981957;28;20058;-80
2022/11/16 13:15:39;;;;;;;9.52;4.63;;;16.60;99.90;;;;;;5012576;28;20054;-81
2022/11/16 13:18:10;;;;;;;8.15;3.88;;;16.60;99.90;;;;;;5012073;28;20049;-79
2022/11/16 13:20:45;;;;;;;7.03;3.78;;;17.10;99.90;;;;;;5015187;28;20061;-81
2022/11/16 13:23:31;;;;;;;7.28;3.50;;;17.00;99.90;;;;;;5031882;28;20056;-79
2022/11/16 13:26:30;;;;;;;9.45;3.20;;;16.90;99.90;;;;;;5031168;28;20099;-81
2022/11/16 13:29:14;;;;;;;6.20;3.40;;;16.50;99.90;;;;;;5027812;28;20061;-80
2022/11/16 13:31:49;;;;;;;6.65;3.03;;;16.40;99.90;;;;;;5015197;28;20053;-82
2022/11/16 13:34:24;;;;;;;5.45;2.70;;;16.10;99.90;;;;;;5031261;28;20102;-79
2022/11/16 13:36:50;;;;;;;4.80;2.40;;;15.80;99.90;;;;;;5034649;28;20129;-80
2022/11/16 13:39:18;;;;;;;8.52;2.80;;;15.70;99.90;;;;;;4998173;28;20570;-80